sensor_id;sensor_type;location;lat;lon;timestamp;P1;durP1;ratioP1;P2;durP2;ratioP2
77430;SDS011;66498;48.564;19.272;2023-12-14T00:01:14;90.18;;;39.38;;
77430;SDS011;66498;48.564;19.272;2023-12-14T00:03:40;62.17;;;27.23;;
77430;SDS011;66498;48.564;19.272;2023-12-14T00:06:12;53.50;;;25.33;;
77430;SDS011;66498;48.564;19.272;2023-12-14T00:08:38;55.88;;;26.58;;
77430;SDS011;66498;48.564;19.272;2023-12-14T00:11:05;95.53;;;34.42;;
77430;SDS011;66498;48.564;19.272;2023-12-14T00:13:30;81.63;;;32.50;;
77430;SDS011;66498;48.564;19.272;2023-12-14T00:15:56;87.05;;;33.38;;
77430;SDS011;66498;48.564;19.272;2023-12-14T00:18:21;85.82;;;32.60;;
77430;SDS011;66498;48.564;19.272;2023-12-14T00:20:47;94.72;;;34.08;;
77430;SDS011;66498;48.564;19.272;2023-12-14T00:23:13;94.18;;;31.30;;
77430;SDS011;66498;48.564;19.272;2023-12-14T00:25:39;86.07;;;30.83;;
77430;SDS011;66498;48.564;19.272;2023-12-14T00:28:04;134.73;;;31.75;;
77430;SDS011;66498;48.564;19.272;2023-12-14T00:30:29;122.97;;;34.28;;
77430;SDS011;66498;48.564;19.272;2023-12-14T00:32:55;96.47;;;32.15;;
77430;SDS011;66498;48.564;19.272;2023-12-14T00:35:20;91.32;;;31.13;;
77430;SDS011;66498;48.564;19.272;2023-12-14T00:37:46;95.28;;;31.83;;
77430;SDS011;66498;48.564;19.272;2023-12-14T00:40:11;107.72;;;33.20;;
77430;SDS011;66498;48.564;19.272;2023-12-14T00:42:37;65.25;;;29.52;;
77430;SDS011;66498;48.564;19.272;2023-12-14T00:45:03;125.97;;;51.17;;
77430;SDS011;66498;48.564;19.272;2023-12-14T00:47:28;101.25;;;35.08;;
77430;SDS011;66498;48.564;19.272;2023-12-14T00:49:54;92.18;;;31.17;;
77430;SDS011;66498;48.564;19.272;2023-12-14T00:52:19;90.05;;;32.38;;
77430;SDS011;66498;48.564;19.272;2023-12-14T00:54:45;101.05;;;34.13;;
77430;SDS011;66498;48.564;19.272;2023-12-14T00:57:10;106.93;;;33.20;;
77430;SDS011;66498;48.564;19.272;2023-12-14T00:59:36;75.15;;;30.40;;
77430;SDS011;66498;48.564;19.272;2023-12-14T01:02:01;78.50;;;32.75;;
77430;SDS011;66498;48.564;19.272;2023-12-14T01:04:27;100.60;;;36.58;;
77430;SDS011;66498;48.564;19.272;2023-12-14T01:06:52;78.93;;;32.17;;
77430;SDS011;66498;48.564;19.272;2023-12-14T01:09:18;71.00;;;31.90;;
77430;SDS011;66498;48.564;19.272;2023-12-14T01:11:43;65.60;;;30.70;;
77430;SDS011;66498;48.564;19.272;2023-12-14T01:14:09;81.03;;;32.95;;
77430;SDS011;66498;48.564;19.272;2023-12-14T01:16:34;87.65;;;34.67;;
77430;SDS011;66498;48.564;19.272;2023-12-14T01:19:00;96.88;;;33.65;;
77430;SDS011;66498;48.564;19.272;2023-12-14T01:21:25;68.20;;;29.80;;
77430;SDS011;66498;48.564;19.272;2023-12-14T01:23:51;66.88;;;29.58;;
77430;SDS011;66498;48.564;19.272;2023-12-14T01:26:17;92.30;;;34.53;;
77430;SDS011;66498;48.564;19.272;2023-12-14T01:28:43;77.97;;;31.92;;
77430;SDS011;66498;48.564;19.272;2023-12-14T01:31:09;76.00;;;31.92;;
77430;SDS011;66498;48.564;19.272;2023-12-14T01:33:34;94.68;;;35.55;;
77430;SDS011;66498;48.564;19.272;2023-12-14T01:35:59;74.72;;;34.10;;
77430;SDS011;66498;48.564;19.272;2023-12-14T01:38:25;87.10;;;33.58;;
77430;SDS011;66498;48.564;19.272;2023-12-14T01:40:50;122.43;;;65.75;;
77430;SDS011;66498;48.564;19.272;2023-12-14T01:43:16;101.63;;;44.63;;
77430;SDS011;66498;48.564;19.272;2023-12-14T01:45:41;74.78;;;33.35;;
77430;SDS011;66498;48.564;19.272;2023-12-14T01:48:07;81.65;;;31.60;;
77430;SDS011;66498;48.564;19.272;2023-12-14T01:50:32;65.90;;;29.65;;
77430;SDS011;66498;48.564;19.272;2023-12-14T01:52:58;61.40;;;29.67;;
77430;SDS011;66498;48.564;19.272;2023-12-14T01:55:23;69.10;;;30.42;;
77430;SDS011;66498;48.564;19.272;2023-12-14T01:57:50;85.05;;;35.08;;
77430;SDS011;66498;48.564;19.272;2023-12-14T02:00:22;124.70;;;38.63;;
77430;SDS011;66498;48.564;19.272;2023-12-14T02:03:07;96.05;;;35.80;;
77430;SDS011;66498;48.564;19.272;2023-12-14T02:05:32;106.82;;;34.28;;
77430;SDS011;66498;48.564;19.272;2023-12-14T02:07:57;82.13;;;33.85;;
77430;SDS011;66498;48.564;19.272;2023-12-14T02:10:23;104.55;;;37.20;;
77430;SDS011;66498;48.564;19.272;2023-12-14T02:12:49;104.35;;;35.30;;
77430;SDS011;66498;48.564;19.272;2023-12-14T02:15:14;95.47;;;35.33;;
77430;SDS011;66498;48.564;19.272;2023-12-14T02:17:40;105.00;;;37.63;;
77430;SDS011;66498;48.564;19.272;2023-12-14T02:20:05;82.78;;;33.85;;
77430;SDS011;66498;48.564;19.272;2023-12-14T02:25:20;79.93;;;31.38;;
77430;SDS011;66498;48.564;19.272;2023-12-14T02:27:46;140.93;;;38.15;;
77430;SDS011;66498;48.564;19.272;2023-12-14T02:30:12;73.35;;;31.27;;
77430;SDS011;66498;48.564;19.272;2023-12-14T02:32:39;65.75;;;29.05;;
77430;SDS011;66498;48.564;19.272;2023-12-14T02:35:05;75.82;;;30.77;;
77430;SDS011;66498;48.564;19.272;2023-12-14T02:37:32;67.45;;;29.70;;
77430;SDS011;66498;48.564;19.272;2023-12-14T02:39:58;73.18;;;30.88;;
77430;SDS011;66498;48.564;19.272;2023-12-14T02:42:24;71.15;;;30.98;;
77430;SDS011;66498;48.564;19.272;2023-12-14T02:44:49;67.18;;;30.98;;
77430;SDS011;66498;48.564;19.272;2023-12-14T02:47:15;71.65;;;30.52;;
77430;SDS011;66498;48.564;19.272;2023-12-14T02:49:41;67.72;;;29.73;;
77430;SDS011;66498;48.564;19.272;2023-12-14T02:52:07;60.83;;;27.98;;
77430;SDS011;66498;48.564;19.272;2023-12-14T02:54:32;62.70;;;28.13;;
77430;SDS011;66498;48.564;19.272;2023-12-14T02:56:58;61.08;;;28.13;;
77430;SDS011;66498;48.564;19.272;2023-12-14T02:59:23;59.22;;;27.77;;
77430;SDS011;66498;48.564;19.272;2023-12-14T03:01:49;54.58;;;26.15;;
77430;SDS011;66498;48.564;19.272;2023-12-14T03:04:14;62.20;;;24.33;;
77430;SDS011;66498;48.564;19.272;2023-12-14T03:06:40;68.82;;;26.00;;
77430;SDS011;66498;48.564;19.272;2023-12-14T03:09:05;64.45;;;27.52;;
77430;SDS011;66498;48.564;19.272;2023-12-14T03:11:30;72.05;;;29.02;;
77430;SDS011;66498;48.564;19.272;2023-12-14T03:13:56;76.75;;;27.52;;
77430;SDS011;66498;48.564;19.272;2023-12-14T03:16:21;68.05;;;26.73;;
77430;SDS011;66498;48.564;19.272;2023-12-14T03:18:47;75.10;;;29.48;;
77430;SDS011;66498;48.564;19.272;2023-12-14T03:21:17;101.13;;;29.42;;
77430;SDS011;66498;48.564;19.272;2023-12-14T03:23:43;73.55;;;25.38;;
77430;SDS011;66498;48.564;19.272;2023-12-14T03:26:08;60.97;;;25.58;;
77430;SDS011;66498;48.564;19.272;2023-12-14T03:28:34;67.90;;;26.35;;
77430;SDS011;66498;48.564;19.272;2023-12-14T03:31:00;60.20;;;23.33;;
77430;SDS011;66498;48.564;19.272;2023-12-14T03:33:25;62.08;;;24.85;;
77430;SDS011;66498;48.564;19.272;2023-12-14T03:35:51;61.22;;;26.42;;
77430;SDS011;66498;48.564;19.272;2023-12-14T03:38:16;66.38;;;27.42;;
77430;SDS011;66498;48.564;19.272;2023-12-14T03:40:41;91.30;;;29.48;;
77430;SDS011;66498;48.564;19.272;2023-12-14T03:43:07;65.30;;;26.35;;
77430;SDS011;66498;48.564;19.272;2023-12-14T03:45:33;60.83;;;25.42;;
77430;SDS011;66498;48.564;19.272;2023-12-14T03:47:58;56.50;;;25.35;;
77430;SDS011;66498;48.564;19.272;2023-12-14T03:50:24;75.53;;;26.77;;
77430;SDS011;66498;48.564;19.272;2023-12-14T03:52:49;71.35;;;25.75;;
77430;SDS011;66498;48.564;19.272;2023-12-14T03:55:15;77.32;;;25.20;;
77430;SDS011;66498;48.564;19.272;2023-12-14T03:57:41;85.82;;;26.13;;
77430;SDS011;66498;48.564;19.272;2023-12-14T04:00:13;82.65;;;27.17;;
77430;SDS011;66498;48.564;19.272;2023-12-14T04:02:39;73.45;;;28.80;;
77430;SDS011;66498;48.564;19.272;2023-12-14T04:05:08;122.85;;;39.05;;
77430;SDS011;66498;48.564;19.272;2023-12-14T04:07:35;119.05;;;36.90;;
77430;SDS011;66498;48.564;19.272;2023-12-14T04:10:01;96.85;;;35.58;;
77430;SDS011;66498;48.564;19.272;2023-12-14T04:12:27;99.50;;;34.22;;
77430;SDS011;66498;48.564;19.272;2023-12-14T04:14:53;87.82;;;34.25;;
77430;SDS011;66498;48.564;19.272;2023-12-14T04:17:18;95.70;;;34.95;;
77430;SDS011;66498;48.564;19.272;2023-12-14T04:19:45;90.15;;;33.60;;
77430;SDS011;66498;48.564;19.272;2023-12-14T04:22:11;103.13;;;33.90;;
77430;SDS011;66498;48.564;19.272;2023-12-14T04:24:36;85.70;;;31.67;;
77430;SDS011;66498;48.564;19.272;2023-12-14T04:27:01;62.15;;;29.08;;
77430;SDS011;66498;48.564;19.272;2023-12-14T04:29:27;62.15;;;28.27;;
77430;SDS011;66498;48.564;19.272;2023-12-14T04:31:52;68.03;;;28.95;;
77430;SDS011;66498;48.564;19.272;2023-12-14T04:34:18;111.45;;;31.98;;
77430;SDS011;66498;48.564;19.272;2023-12-14T04:36:47;72.88;;;29.38;;
77430;SDS011;66498;48.564;19.272;2023-12-14T04:39:13;70.15;;;32.75;;
77430;SDS011;66498;48.564;19.272;2023-12-14T04:41:38;76.50;;;33.85;;
77430;SDS011;66498;48.564;19.272;2023-12-14T04:44:04;71.70;;;28.08;;
77430;SDS011;66498;48.564;19.272;2023-12-14T04:46:29;62.38;;;25.30;;
77430;SDS011;66498;48.564;19.272;2023-12-14T04:48:55;59.85;;;27.38;;
77430;SDS011;66498;48.564;19.272;2023-12-14T04:51:21;57.67;;;26.55;;
77430;SDS011;66498;48.564;19.272;2023-12-14T04:53:46;59.10;;;26.00;;
77430;SDS011;66498;48.564;19.272;2023-12-14T04:56:12;55.88;;;27.13;;
77430;SDS011;66498;48.564;19.272;2023-12-14T04:58:38;53.33;;;25.83;;
77430;SDS011;66498;48.564;19.272;2023-12-14T05:01:05;54.65;;;25.65;;
77430;SDS011;66498;48.564;19.272;2023-12-14T05:03:30;69.55;;;28.63;;
77430;SDS011;66498;48.564;19.272;2023-12-14T05:05:56;63.75;;;27.33;;
77430;SDS011;66498;48.564;19.272;2023-12-14T05:08:21;66.20;;;27.10;;
77430;SDS011;66498;48.564;19.272;2023-12-14T05:10:47;70.97;;;28.35;;
77430;SDS011;66498;48.564;19.272;2023-12-14T05:13:12;77.55;;;28.73;;
77430;SDS011;66498;48.564;19.272;2023-12-14T05:15:38;66.47;;;28.02;;
77430;SDS011;66498;48.564;19.272;2023-12-14T05:18:03;80.10;;;28.30;;
77430;SDS011;66498;48.564;19.272;2023-12-14T05:20:29;70.45;;;27.85;;
77430;SDS011;66498;48.564;19.272;2023-12-14T05:22:54;64.82;;;26.10;;
77430;SDS011;66498;48.564;19.272;2023-12-14T05:25:20;80.95;;;27.40;;
77430;SDS011;66498;48.564;19.272;2023-12-14T05:27:45;79.22;;;25.63;;
77430;SDS011;66498;48.564;19.272;2023-12-14T05:30:11;76.20;;;26.48;;
77430;SDS011;66498;48.564;19.272;2023-12-14T05:32:36;81.05;;;26.95;;
77430;SDS011;66498;48.564;19.272;2023-12-14T05:35:02;77.47;;;26.23;;
77430;SDS011;66498;48.564;19.272;2023-12-14T05:37:28;75.50;;;27.05;;
77430;SDS011;66498;48.564;19.272;2023-12-14T05:39:53;75.82;;;27.23;;
77430;SDS011;66498;48.564;19.272;2023-12-14T05:42:18;118.45;;;39.90;;
77430;SDS011;66498;48.564;19.272;2023-12-14T05:44:44;110.00;;;37.13;;
77430;SDS011;66498;48.564;19.272;2023-12-14T05:47:10;87.65;;;30.98;;
77430;SDS011;66498;48.564;19.272;2023-12-14T05:49:36;59.63;;;24.55;;
77430;SDS011;66498;48.564;19.272;2023-12-14T05:52:02;58.88;;;25.42;;
77430;SDS011;66498;48.564;19.272;2023-12-14T05:54:28;54.13;;;24.50;;
77430;SDS011;66498;48.564;19.272;2023-12-14T05:56:53;61.85;;;25.88;;
77430;SDS011;66498;48.564;19.272;2023-12-14T05:59:19;68.18;;;26.55;;
77430;SDS011;66498;48.564;19.272;2023-12-14T06:01:44;51.47;;;23.63;;
77430;SDS011;66498;48.564;19.272;2023-12-14T06:04:10;46.55;;;22.38;;
77430;SDS011;66498;48.564;19.272;2023-12-14T06:06:37;41.42;;;21.35;;
77430;SDS011;66498;48.564;19.272;2023-12-14T06:09:04;47.55;;;22.83;;
77430;SDS011;66498;48.564;19.272;2023-12-14T06:11:32;49.38;;;21.98;;
77430;SDS011;66498;48.564;19.272;2023-12-14T06:13:58;47.67;;;22.20;;
77430;SDS011;66498;48.564;19.272;2023-12-14T06:16:24;91.45;;;28.73;;
77430;SDS011;66498;48.564;19.272;2023-12-14T06:18:50;79.75;;;26.42;;
77430;SDS011;66498;48.564;19.272;2023-12-14T06:21:15;86.50;;;28.13;;
77430;SDS011;66498;48.564;19.272;2023-12-14T06:23:41;51.05;;;23.65;;
77430;SDS011;66498;48.564;19.272;2023-12-14T06:26:07;56.55;;;24.02;;
77430;SDS011;66498;48.564;19.272;2023-12-14T06:28:32;57.65;;;24.73;;
77430;SDS011;66498;48.564;19.272;2023-12-14T06:30:58;51.97;;;23.30;;
77430;SDS011;66498;48.564;19.272;2023-12-14T06:33:23;55.50;;;25.25;;
77430;SDS011;66498;48.564;19.272;2023-12-14T06:35:49;49.35;;;22.40;;
77430;SDS011;66498;48.564;19.272;2023-12-14T06:38:15;52.10;;;22.63;;
77430;SDS011;66498;48.564;19.272;2023-12-14T06:40:40;65.20;;;23.90;;
77430;SDS011;66498;48.564;19.272;2023-12-14T06:43:06;61.78;;;21.83;;
77430;SDS011;66498;48.564;19.272;2023-12-14T06:45:31;55.15;;;21.17;;
77430;SDS011;66498;48.564;19.272;2023-12-14T06:47:57;52.33;;;20.70;;
77430;SDS011;66498;48.564;19.272;2023-12-14T06:50:22;46.65;;;20.33;;
77430;SDS011;66498;48.564;19.272;2023-12-14T06:52:48;45.17;;;19.10;;
77430;SDS011;66498;48.564;19.272;2023-12-14T06:55:13;48.30;;;19.55;;
77430;SDS011;66498;48.564;19.272;2023-12-14T06:57:43;45.55;;;20.10;;
77430;SDS011;66498;48.564;19.272;2023-12-14T07:00:13;51.10;;;20.63;;
77430;SDS011;66498;48.564;19.272;2023-12-14T07:02:39;47.30;;;20.73;;
77430;SDS011;66498;48.564;19.272;2023-12-14T07:05:05;72.78;;;23.52;;
77430;SDS011;66498;48.564;19.272;2023-12-14T07:07:31;48.00;;;20.30;;
77430;SDS011;66498;48.564;19.272;2023-12-14T07:09:56;37.95;;;18.15;;
77430;SDS011;66498;48.564;19.272;2023-12-14T07:12:22;42.92;;;19.13;;
77430;SDS011;66498;48.564;19.272;2023-12-14T07:14:47;43.75;;;18.98;;
77430;SDS011;66498;48.564;19.272;2023-12-14T07:17:13;44.83;;;19.40;;
77430;SDS011;66498;48.564;19.272;2023-12-14T07:19:38;45.17;;;18.23;;
77430;SDS011;66498;48.564;19.272;2023-12-14T07:22:04;40.03;;;18.17;;
77430;SDS011;66498;48.564;19.272;2023-12-14T07:24:30;39.05;;;17.60;;
77430;SDS011;66498;48.564;19.272;2023-12-14T07:26:56;41.25;;;17.73;;
77430;SDS011;66498;48.564;19.272;2023-12-14T07:29:21;36.97;;;18.20;;
77430;SDS011;66498;48.564;19.272;2023-12-14T07:31:47;45.63;;;19.25;;
77430;SDS011;66498;48.564;19.272;2023-12-14T07:34:12;43.00;;;19.13;;
77430;SDS011;66498;48.564;19.272;2023-12-14T07:36:37;32.92;;;16.48;;
77430;SDS011;66498;48.564;19.272;2023-12-14T07:39:03;35.72;;;17.35;;
77430;SDS011;66498;48.564;19.272;2023-12-14T07:41:31;29.55;;;15.70;;
77430;SDS011;66498;48.564;19.272;2023-12-14T07:43:57;32.33;;;16.95;;
77430;SDS011;66498;48.564;19.272;2023-12-14T07:46:23;35.65;;;17.05;;
77430;SDS011;66498;48.564;19.272;2023-12-14T07:48:48;43.53;;;22.92;;
77430;SDS011;66498;48.564;19.272;2023-12-14T07:51:15;33.72;;;17.40;;
77430;SDS011;66498;48.564;19.272;2023-12-14T07:53:40;38.83;;;17.55;;
77430;SDS011;66498;48.564;19.272;2023-12-14T07:56:07;38.72;;;17.83;;
77430;SDS011;66498;48.564;19.272;2023-12-14T07:58:33;38.75;;;17.27;;
77430;SDS011;66498;48.564;19.272;2023-12-14T08:00:58;43.35;;;18.25;;
77430;SDS011;66498;48.564;19.272;2023-12-14T08:03:24;34.03;;;16.52;;
77430;SDS011;66498;48.564;19.272;2023-12-14T08:05:50;36.03;;;17.98;;
77430;SDS011;66498;48.564;19.272;2023-12-14T08:08:16;38.67;;;18.13;;
77430;SDS011;66498;48.564;19.272;2023-12-14T08:10:41;33.55;;;17.58;;
77430;SDS011;66498;48.564;19.272;2023-12-14T08:13:07;34.63;;;16.73;;
77430;SDS011;66498;48.564;19.272;2023-12-14T08:15:33;31.85;;;16.95;;
77430;SDS011;66498;48.564;19.272;2023-12-14T08:17:58;33.13;;;16.98;;
77430;SDS011;66498;48.564;19.272;2023-12-14T08:20:26;37.10;;;17.33;;
77430;SDS011;66498;48.564;19.272;2023-12-14T08:22:52;33.88;;;16.35;;
77430;SDS011;66498;48.564;19.272;2023-12-14T08:25:18;36.45;;;17.95;;
77430;SDS011;66498;48.564;19.272;2023-12-14T08:27:43;33.85;;;16.98;;
77430;SDS011;66498;48.564;19.272;2023-12-14T08:30:10;33.50;;;17.23;;
77430;SDS011;66498;48.564;19.272;2023-12-14T08:32:36;35.58;;;18.88;;
77430;SDS011;66498;48.564;19.272;2023-12-14T08:35:02;31.75;;;16.50;;
77430;SDS011;66498;48.564;19.272;2023-12-14T08:37:28;30.38;;;15.55;;
77430;SDS011;66498;48.564;19.272;2023-12-14T08:39:53;32.22;;;15.15;;
77430;SDS011;66498;48.564;19.272;2023-12-14T08:42:22;38.00;;;15.07;;
77430;SDS011;66498;48.564;19.272;2023-12-14T08:44:47;32.08;;;15.88;;
77430;SDS011;66498;48.564;19.272;2023-12-14T08:47:13;26.73;;;14.57;;
77430;SDS011;66498;48.564;19.272;2023-12-14T08:49:38;29.02;;;15.57;;
77430;SDS011;66498;48.564;19.272;2023-12-14T08:52:04;33.90;;;16.30;;
77430;SDS011;66498;48.564;19.272;2023-12-14T08:54:29;30.05;;;16.08;;
77430;SDS011;66498;48.564;19.272;2023-12-14T08:56:55;28.52;;;16.02;;
77430;SDS011;66498;48.564;19.272;2023-12-14T08:59:20;31.08;;;16.05;;
77430;SDS011;66498;48.564;19.272;2023-12-14T09:01:46;30.73;;;15.55;;
77430;SDS011;66498;48.564;19.272;2023-12-14T09:04:12;29.20;;;15.38;;
77430;SDS011;66498;48.564;19.272;2023-12-14T09:06:38;27.30;;;15.45;;
77430;SDS011;66498;48.564;19.272;2023-12-14T09:09:07;27.80;;;15.48;;
77430;SDS011;66498;48.564;19.272;2023-12-14T09:11:33;31.27;;;17.08;;
77430;SDS011;66498;48.564;19.272;2023-12-14T09:14:00;36.70;;;18.17;;
77430;SDS011;66498;48.564;19.272;2023-12-14T09:16:25;34.10;;;18.17;;
77430;SDS011;66498;48.564;19.272;2023-12-14T09:18:51;35.05;;;17.77;;
77430;SDS011;66498;48.564;19.272;2023-12-14T09:21:17;36.97;;;18.08;;
77430;SDS011;66498;48.564;19.272;2023-12-14T09:23:42;31.92;;;16.23;;
77430;SDS011;66498;48.564;19.272;2023-12-14T09:26:08;30.48;;;15.85;;
77430;SDS011;66498;48.564;19.272;2023-12-14T09:28:33;29.13;;;16.63;;
77430;SDS011;66498;48.564;19.272;2023-12-14T09:30:59;29.60;;;15.35;;
77430;SDS011;66498;48.564;19.272;2023-12-14T09:33:25;33.10;;;18.23;;
77430;SDS011;66498;48.564;19.272;2023-12-14T09:35:50;50.47;;;25.38;;
77430;SDS011;66498;48.564;19.272;2023-12-14T09:38:16;44.97;;;24.38;;
77430;SDS011;66498;48.564;19.272;2023-12-14T09:40:44;38.22;;;15.02;;
77430;SDS011;66498;48.564;19.272;2023-12-14T09:43:10;36.35;;;17.85;;
77430;SDS011;66498;48.564;19.272;2023-12-14T09:45:36;40.17;;;20.10;;
77430;SDS011;66498;48.564;19.272;2023-12-14T09:48:07;34.10;;;18.85;;
77430;SDS011;66498;48.564;19.272;2023-12-14T09:50:35;34.67;;;15.32;;
77430;SDS011;66498;48.564;19.272;2023-12-14T09:53:02;34.33;;;18.98;;
77430;SDS011;66498;48.564;19.272;2023-12-14T09:55:27;44.70;;;18.88;;
77430;SDS011;66498;48.564;19.272;2023-12-14T09:57:53;43.33;;;19.23;;
77430;SDS011;66498;48.564;19.272;2023-12-14T10:00:40;41.47;;;16.67;;
77430;SDS011;66498;48.564;19.272;2023-12-14T10:03:26;48.63;;;18.25;;
77430;SDS011;66498;48.564;19.272;2023-12-14T10:05:57;34.53;;;18.90;;
77430;SDS011;66498;48.564;19.272;2023-12-14T10:08:26;37.47;;;21.52;;
77430;SDS011;66498;48.564;19.272;2023-12-14T10:10:52;29.88;;;18.25;;
77430;SDS011;66498;48.564;19.272;2023-12-14T10:13:22;29.58;;;18.33;;
77430;SDS011;66498;48.564;19.272;2023-12-14T10:16:02;32.25;;;18.98;;
77430;SDS011;66498;48.564;19.272;2023-12-14T10:18:27;42.35;;;25.20;;
77430;SDS011;66498;48.564;19.272;2023-12-14T10:20:54;32.83;;;19.58;;
77430;SDS011;66498;48.564;19.272;2023-12-14T10:23:20;32.60;;;19.58;;
77430;SDS011;66498;48.564;19.272;2023-12-14T10:25:46;31.55;;;18.55;;
77430;SDS011;66498;48.564;19.272;2023-12-14T10:28:12;36.90;;;21.70;;
77430;SDS011;66498;48.564;19.272;2023-12-14T10:30:41;37.30;;;22.83;;
77430;SDS011;66498;48.564;19.272;2023-12-14T10:33:07;48.35;;;30.20;;
77430;SDS011;66498;48.564;19.272;2023-12-14T10:35:33;41.45;;;25.42;;
77430;SDS011;66498;48.564;19.272;2023-12-14T10:38:01;57.25;;;29.58;;
77430;SDS011;66498;48.564;19.272;2023-12-14T10:40:29;49.40;;;34.30;;
77430;SDS011;66498;48.564;19.272;2023-12-14T10:42:57;58.58;;;39.42;;
77430;SDS011;66498;48.564;19.272;2023-12-14T10:45:25;32.63;;;22.48;;
77430;SDS011;66498;48.564;19.272;2023-12-14T10:47:54;28.33;;;19.40;;
77430;SDS011;66498;48.564;19.272;2023-12-14T10:50:21;33.22;;;22.65;;
77430;SDS011;66498;48.564;19.272;2023-12-14T10:52:47;45.30;;;29.35;;
77430;SDS011;66498;48.564;19.272;2023-12-14T10:55:23;46.55;;;29.63;;
77430;SDS011;66498;48.564;19.272;2023-12-14T10:57:57;42.33;;;24.90;;
77430;SDS011;66498;48.564;19.272;2023-12-14T11:00:23;42.38;;;26.35;;
77430;SDS011;66498;48.564;19.272;2023-12-14T11:02:48;40.97;;;25.88;;
77430;SDS011;66498;48.564;19.272;2023-12-14T11:05:15;43.72;;;28.02;;
77430;SDS011;66498;48.564;19.272;2023-12-14T11:07:51;46.63;;;29.55;;
77430;SDS011;66498;48.564;19.272;2023-12-14T11:10:38;52.25;;;34.08;;
77430;SDS011;66498;48.564;19.272;2023-12-14T11:13:12;47.33;;;29.65;;
77430;SDS011;66498;48.564;19.272;2023-12-14T11:15:48;43.78;;;28.25;;
77430;SDS011;66498;48.564;19.272;2023-12-14T11:23:09;33.67;;;23.17;;
77430;SDS011;66498;48.564;19.272;2023-12-14T11:25:35;32.95;;;23.50;;
77430;SDS011;66498;48.564;19.272;2023-12-14T11:28:04;34.45;;;24.20;;
77430;SDS011;66498;48.564;19.272;2023-12-14T11:30:31;31.95;;;23.42;;
77430;SDS011;66498;48.564;19.272;2023-12-14T11:32:57;31.92;;;22.80;;
77430;SDS011;66498;48.564;19.272;2023-12-14T11:35:22;28.90;;;21.58;;
77430;SDS011;66498;48.564;19.272;2023-12-14T11:37:48;27.67;;;20.63;;
77430;SDS011;66498;48.564;19.272;2023-12-14T11:40:15;31.77;;;23.67;;
77430;SDS011;66498;48.564;19.272;2023-12-14T11:42:57;35.10;;;25.27;;
77430;SDS011;66498;48.564;19.272;2023-12-14T11:45:26;36.45;;;24.80;;
77430;SDS011;66498;48.564;19.272;2023-12-14T11:47:52;33.63;;;21.52;;
77430;SDS011;66498;48.564;19.272;2023-12-14T11:50:18;36.17;;;22.38;;
77430;SDS011;66498;48.564;19.272;2023-12-14T11:52:44;36.92;;;22.98;;
77430;SDS011;66498;48.564;19.272;2023-12-14T11:55:10;32.85;;;21.40;;
77430;SDS011;66498;48.564;19.272;2023-12-14T11:57:36;36.05;;;23.38;;
77430;SDS011;66498;48.564;19.272;2023-12-14T12:00:02;36.75;;;24.02;;
77430;SDS011;66498;48.564;19.272;2023-12-14T12:02:29;37.20;;;25.20;;
77430;SDS011;66498;48.564;19.272;2023-12-14T12:04:55;35.33;;;24.65;;
77430;SDS011;66498;48.564;19.272;2023-12-14T12:07:21;35.60;;;24.80;;
77430;SDS011;66498;48.564;19.272;2023-12-14T12:09:47;33.78;;;23.17;;
77430;SDS011;66498;48.564;19.272;2023-12-14T12:12:13;34.85;;;24.40;;
77430;SDS011;66498;48.564;19.272;2023-12-14T12:14:39;34.83;;;23.88;;
77430;SDS011;66498;48.564;19.272;2023-12-14T12:17:05;35.25;;;23.80;;
77430;SDS011;66498;48.564;19.272;2023-12-14T12:19:35;33.00;;;23.60;;
77430;SDS011;66498;48.564;19.272;2023-12-14T12:22:02;33.85;;;23.70;;
77430;SDS011;66498;48.564;19.272;2023-12-14T12:24:29;33.15;;;22.73;;
77430;SDS011;66498;48.564;19.272;2023-12-14T12:26:55;32.30;;;22.08;;
77430;SDS011;66498;48.564;19.272;2023-12-14T12:29:21;32.13;;;21.15;;
77430;SDS011;66498;48.564;19.272;2023-12-14T12:31:47;30.52;;;20.92;;
77430;SDS011;66498;48.564;19.272;2023-12-14T12:34:13;32.15;;;22.33;;
77430;SDS011;66498;48.564;19.272;2023-12-14T12:36:39;32.15;;;21.92;;
77430;SDS011;66498;48.564;19.272;2023-12-14T12:39:04;32.13;;;21.25;;
77430;SDS011;66498;48.564;19.272;2023-12-14T12:41:34;30.08;;;19.60;;
77430;SDS011;66498;48.564;19.272;2023-12-14T12:44:02;28.25;;;19.17;;
77430;SDS011;66498;48.564;19.272;2023-12-14T12:46:40;29.58;;;18.17;;
77430;SDS011;66498;48.564;19.272;2023-12-14T12:49:06;29.00;;;18.63;;
77430;SDS011;66498;48.564;19.272;2023-12-14T12:51:31;31.35;;;20.80;;
77430;SDS011;66498;48.564;19.272;2023-12-14T12:53:58;40.22;;;26.55;;
77430;SDS011;66498;48.564;19.272;2023-12-14T12:56:25;38.90;;;26.23;;
77430;SDS011;66498;48.564;19.272;2023-12-14T12:58:52;34.08;;;22.70;;
77430;SDS011;66498;48.564;19.272;2023-12-14T13:01:22;32.33;;;21.10;;
77430;SDS011;66498;48.564;19.272;2023-12-14T13:03:51;28.92;;;18.60;;
77430;SDS011;66498;48.564;19.272;2023-12-14T13:06:18;28.77;;;18.65;;
77430;SDS011;66498;48.564;19.272;2023-12-14T13:08:44;27.98;;;18.95;;
77430;SDS011;66498;48.564;19.272;2023-12-14T13:11:09;27.67;;;18.55;;
77430;SDS011;66498;48.564;19.272;2023-12-14T13:13:35;28.33;;;19.00;;
77430;SDS011;66498;48.564;19.272;2023-12-14T13:16:00;27.45;;;18.65;;
77430;SDS011;66498;48.564;19.272;2023-12-14T13:18:26;41.28;;;26.30;;
77430;SDS011;66498;48.564;19.272;2023-12-14T13:20:51;63.53;;;38.65;;
77430;SDS011;66498;48.564;19.272;2023-12-14T13:23:17;51.50;;;30.48;;
77430;SDS011;66498;48.564;19.272;2023-12-14T13:25:42;49.42;;;27.75;;
77430;SDS011;66498;48.564;19.272;2023-12-14T13:28:10;48.13;;;30.30;;
77430;SDS011;66498;48.564;19.272;2023-12-14T13:30:35;47.28;;;28.92;;
77430;SDS011;66498;48.564;19.272;2023-12-14T13:33:01;41.95;;;25.80;;
77430;SDS011;66498;48.564;19.272;2023-12-14T13:35:29;41.78;;;26.90;;
77430;SDS011;66498;48.564;19.272;2023-12-14T13:37:54;38.58;;;23.60;;
77430;SDS011;66498;48.564;19.272;2023-12-14T13:40:20;37.50;;;24.10;;
77430;SDS011;66498;48.564;19.272;2023-12-14T13:42:46;35.15;;;21.63;;
77430;SDS011;66498;48.564;19.272;2023-12-14T13:45:11;31.48;;;21.00;;
77430;SDS011;66498;48.564;19.272;2023-12-14T13:47:37;31.50;;;21.30;;
77430;SDS011;66498;48.564;19.272;2023-12-14T13:50:02;29.75;;;19.17;;
77430;SDS011;66498;48.564;19.272;2023-12-14T13:52:29;29.58;;;19.60;;
77430;SDS011;66498;48.564;19.272;2023-12-14T13:54:55;29.73;;;19.65;;
77430;SDS011;66498;48.564;19.272;2023-12-14T13:57:21;28.88;;;18.73;;
77430;SDS011;66498;48.564;19.272;2023-12-14T13:59:47;28.58;;;18.48;;
77430;SDS011;66498;48.564;19.272;2023-12-14T14:02:12;29.55;;;19.80;;
77430;SDS011;66498;48.564;19.272;2023-12-14T14:04:38;27.58;;;18.90;;
77430;SDS011;66498;48.564;19.272;2023-12-14T14:07:03;30.52;;;20.88;;
77430;SDS011;66498;48.564;19.272;2023-12-14T14:09:29;39.30;;;25.95;;
77430;SDS011;66498;48.564;19.272;2023-12-14T14:11:55;31.60;;;20.92;;